sensor_id;sensor_type;location;lat;lon;timestamp;temperature;humidity
21425;DHT22;10873;51.132;16.848;2023-11-19T00:01:43;25.00;53.20
21425;DHT22;10873;51.132;16.848;2023-11-19T00:04:09;25.00;53.20
21425;DHT22;10873;51.132;16.848;2023-11-19T00:06:36;25.00;53.10
21425;DHT22;10873;51.132;16.848;2023-11-19T00:09:01;25.10;53.20
21425;DHT22;10873;51.132;16.848;2023-11-19T00:11:29;25.00;53.10
21425;DHT22;10873;51.132;16.848;2023-11-19T00:13:55;25.00;53.10
21425;DHT22;10873;51.132;16.848;2023-11-19T00:16:21;25.00;53.10
21425;DHT22;10873;51.132;16.848;2023-11-19T00:18:49;25.00;53.00
21425;DHT22;10873;51.132;16.848;2023-11-19T00:21:15;25.10;53.30
21425;DHT22;10873;51.132;16.848;2023-11-19T00:23:41;25.00;53.00
21425;DHT22;10873;51.132;16.848;2023-11-19T00:26:08;25.10;53.00
21425;DHT22;10873;51.132;16.848;2023-11-19T00:28:33;25.10;53.00
21425;DHT22;10873;51.132;16.848;2023-11-19T00:31:00;25.10;53.00
21425;DHT22;10873;51.132;16.848;2023-11-19T00:33:26;25.10;52.90
21425;DHT22;10873;51.132;16.848;2023-11-19T00:35:53;25.10;52.90
21425;DHT22;10873;51.132;16.848;2023-11-19T00:38:19;25.10;52.90
21425;DHT22;10873;51.132;16.848;2023-11-19T00:40:45;25.00;52.80
21425;DHT22;10873;51.132;16.848;2023-11-19T00:43:11;25.10;52.90
21425;DHT22;10873;51.132;16.848;2023-11-19T00:45:37;25.10;52.90
21425;DHT22;10873;51.132;16.848;2023-11-19T00:48:04;25.10;52.80
21425;DHT22;10873;51.132;16.848;2023-11-19T00:50:30;25.10;52.80
21425;DHT22;10873;51.132;16.848;2023-11-19T00:52:58;25.10;52.80
21425;DHT22;10873;51.132;16.848;2023-11-19T00:55:24;25.10;52.80
21425;DHT22;10873;51.132;16.848;2023-11-19T00:57:50;25.10;52.70
21425;DHT22;10873;51.132;16.848;2023-11-19T01:00:16;25.10;52.70
21425;DHT22;10873;51.132;16.848;2023-11-19T01:02:46;25.10;52.60
21425;DHT22;10873;51.132;16.848;2023-11-19T01:05:13;25.10;52.60
21425;DHT22;10873;51.132;16.848;2023-11-19T01:07:40;25.10;52.60
21425;DHT22;10873;51.132;16.848;2023-11-19T01:10:08;25.10;52.50
21425;DHT22;10873;51.132;16.848;2023-11-19T01:12:34;25.10;52.50
21425;DHT22;10873;51.132;16.848;2023-11-19T01:15:00;25.10;52.50
21425;DHT22;10873;51.132;16.848;2023-11-19T01:17:26;25.00;53.10
21425;DHT22;10873;51.132;16.848;2023-11-19T01:19:53;25.00;52.50
21425;DHT22;10873;51.132;16.848;2023-11-19T01:22:18;25.10;52.50
21425;DHT22;10873;51.132;16.848;2023-11-19T01:24:45;25.10;52.40
21425;DHT22;10873;51.132;16.848;2023-11-19T01:27:12;25.10;52.40
21425;DHT22;10873;51.132;16.848;2023-11-19T01:29:38;25.10;52.40
21425;DHT22;10873;51.132;16.848;2023-11-19T01:32:05;25.10;52.30
21425;DHT22;10873;51.132;16.848;2023-11-19T01:34:32;25.10;52.30
21425;DHT22;10873;51.132;16.848;2023-11-19T01:36:58;25.10;52.30
21425;DHT22;10873;51.132;16.848;2023-11-19T01:39:24;25.10;52.30
21425;DHT22;10873;51.132;16.848;2023-11-19T01:41:50;25.10;52.30
21425;DHT22;10873;51.132;16.848;2023-11-19T01:44:17;25.10;52.30
21425;DHT22;10873;51.132;16.848;2023-11-19T01:46:44;25.00;52.30
21425;DHT22;10873;51.132;16.848;2023-11-19T01:49:14;25.10;52.30
21425;DHT22;10873;51.132;16.848;2023-11-19T01:51:40;25.10;52.30
21425;DHT22;10873;51.132;16.848;2023-11-19T01:54:07;25.10;52.30
21425;DHT22;10873;51.132;16.848;2023-11-19T01:56:34;25.10;52.20
21425;DHT22;10873;51.132;16.848;2023-11-19T01:59:01;25.10;52.20
21425;DHT22;10873;51.132;16.848;2023-11-19T02:01:29;25.10;52.20
21425;DHT22;10873;51.132;16.848;2023-11-19T02:03:56;25.10;52.10
21425;DHT22;10873;51.132;16.848;2023-11-19T02:06:24;25.10;52.10
21425;DHT22;10873;51.132;16.848;2023-11-19T02:08:52;25.10;52.10
21425;DHT22;10873;51.132;16.848;2023-11-19T02:11:17;25.10;52.10
21425;DHT22;10873;51.132;16.848;2023-11-19T02:13:44;25.10;52.10
21425;DHT22;10873;51.132;16.848;2023-11-19T02:16:10;25.10;52.10
21425;DHT22;10873;51.132;16.848;2023-11-19T02:18:38;25.10;52.10
21425;DHT22;10873;51.132;16.848;2023-11-19T02:21:04;25.10;52.10
21425;DHT22;10873;51.132;16.848;2023-11-19T02:23:31;25.10;52.10
21425;DHT22;10873;51.132;16.848;2023-11-19T02:26:03;25.00;52.00
21425;DHT22;10873;51.132;16.848;2023-11-19T02:28:33;25.10;52.00
21425;DHT22;10873;51.132;16.848;2023-11-19T02:30:59;25.10;52.00
21425;DHT22;10873;51.132;16.848;2023-11-19T02:33:26;25.10;52.00
21425;DHT22;10873;51.132;16.848;2023-11-19T02:35:52;25.10;52.00
21425;DHT22;10873;51.132;16.848;2023-11-19T02:38:18;25.10;52.00
21425;DHT22;10873;51.132;16.848;2023-11-19T02:40:44;25.10;52.00
21425;DHT22;10873;51.132;16.848;2023-11-19T02:43:10;25.10;51.90
21425;DHT22;10873;51.132;16.848;2023-11-19T02:45:37;25.10;51.90
21425;DHT22;10873;51.132;16.848;2023-11-19T02:48:04;25.10;51.90
21425;DHT22;10873;51.132;16.848;2023-11-19T02:50:32;25.10;51.90
21425;DHT22;10873;51.132;16.848;2023-11-19T02:52:58;25.10;51.90
21425;DHT22;10873;51.132;16.848;2023-11-19T02:55:24;25.10;51.90
21425;DHT22;10873;51.132;16.848;2023-11-19T02:57:52;25.10;51.80
21425;DHT22;10873;51.132;16.848;2023-11-19T03:00:20;25.10;51.80
21425;DHT22;10873;51.132;16.848;2023-11-19T03:02:51;25.10;51.80
21425;DHT22;10873;51.132;16.848;2023-11-19T03:05:43;25.10;51.70
21425;DHT22;10873;51.132;16.848;2023-11-19T03:08:10;25.20;51.70
21425;DHT22;10873;51.132;16.848;2023-11-19T03:10:36;25.10;51.60
21425;DHT22;10873;51.132;16.848;2023-11-19T03:13:02;25.20;51.70
21425;DHT22;10873;51.132;16.848;2023-11-19T03:15:28;25.20;51.70
21425;DHT22;10873;51.132;16.848;2023-11-19T03:17:56;25.20;51.70
21425;DHT22;10873;51.132;16.848;2023-11-19T03:20:22;25.20;52.30
21425;DHT22;10873;51.132;16.848;2023-11-19T03:22:49;25.10;51.60
21425;DHT22;10873;51.132;16.848;2023-11-19T03:25:17;25.10;51.60
21425;DHT22;10873;51.132;16.848;2023-11-19T03:27:44;25.10;51.60
21425;DHT22;10873;51.132;16.848;2023-11-19T03:30:10;25.10;51.60
21425;DHT22;10873;51.132;16.848;2023-11-19T03:32:37;25.10;51.60
21425;DHT22;10873;51.132;16.848;2023-11-19T03:35:06;25.10;51.60
21425;DHT22;10873;51.132;16.848;2023-11-19T03:37:35;25.10;51.60
21425;DHT22;10873;51.132;16.848;2023-11-19T03:40:02;25.20;51.70
21425;DHT22;10873;51.132;16.848;2023-11-19T03:42:29;25.20;51.60
21425;DHT22;10873;51.132;16.848;2023-11-19T03:44:58;25.20;51.60
21425;DHT22;10873;51.132;16.848;2023-11-19T03:47:24;25.20;51.50
21425;DHT22;10873;51.132;16.848;2023-11-19T03:49:50;25.20;51.50
21425;DHT22;10873;51.132;16.848;2023-11-19T03:52:18;25.20;51.50
21425;DHT22;10873;51.132;16.848;2023-11-19T03:54:45;25.20;51.50
21425;DHT22;10873;51.132;16.848;2023-11-19T03:57:11;25.20;51.40
21425;DHT22;10873;51.132;16.848;2023-11-19T03:59:38;25.20;51.40
21425;DHT22;10873;51.132;16.848;2023-11-19T04:02:04;25.20;51.40
21425;DHT22;10873;51.132;16.848;2023-11-19T04:04:30;25.10;51.30
21425;DHT22;10873;51.132;16.848;2023-11-19T04:06:56;25.10;51.30
21425;DHT22;10873;51.132;16.848;2023-11-19T04:09:28;25.10;51.30
21425;DHT22;10873;51.132;16.848;2023-11-19T04:11:55;25.10;51.30
21425;DHT22;10873;51.132;16.848;2023-11-19T04:14:21;25.10;51.30
21425;DHT22;10873;51.132;16.848;2023-11-19T04:16:48;25.10;51.30
21425;DHT22;10873;51.132;16.848;2023-11-19T04:19:13;25.10;51.30
21425;DHT22;10873;51.132;16.848;2023-11-19T04:21:40;25.10;51.30
21425;DHT22;10873;51.132;16.848;2023-11-19T04:24:08;25.10;51.20
21425;DHT22;10873;51.132;16.848;2023-11-19T04:26:36;25.20;51.30
21425;DHT22;10873;51.132;16.848;2023-11-19T04:29:05;25.20;51.20
21425;DHT22;10873;51.132;16.848;2023-11-19T04:31:32;25.10;51.20
21425;DHT22;10873;51.132;16.848;2023-11-19T04:33:58;25.10;51.20
21425;DHT22;10873;51.132;16.848;2023-11-19T04:36:26;25.10;51.20
21425;DHT22;10873;51.132;16.848;2023-11-19T04:38:53;25.10;51.20
21425;DHT22;10873;51.132;16.848;2023-11-19T04:41:19;25.10;51.20
21425;DHT22;10873;51.132;16.848;2023-11-19T04:43:46;25.10;51.30
21425;DHT22;10873;51.132;16.848;2023-11-19T04:46:13;25.10;51.30
21425;DHT22;10873;51.132;16.848;2023-11-19T04:48:42;25.10;51.30
21425;DHT22;10873;51.132;16.848;2023-11-19T04:51:09;25.10;51.30
21425;DHT22;10873;51.132;16.848;2023-11-19T04:53:37;25.10;52.00
21425;DHT22;10873;51.132;16.848;2023-11-19T04:56:07;25.10;51.30
21425;DHT22;10873;51.132;16.848;2023-11-19T04:58:34;25.10;51.20
21425;DHT22;10873;51.132;16.848;2023-11-19T05:01:04;25.20;51.20
21425;DHT22;10873;51.132;16.848;2023-11-19T05:03:31;25.20;51.20
21425;DHT22;10873;51.132;16.848;2023-11-19T05:05:57;25.20;51.20
21425;DHT22;10873;51.132;16.848;2023-11-19T05:08:23;25.20;51.10
21425;DHT22;10873;51.132;16.848;2023-11-19T05:10:49;25.20;51.00
21425;DHT22;10873;51.132;16.848;2023-11-19T05:13:15;25.30;51.00
21425;DHT22;10873;51.132;16.848;2023-11-19T05:15:42;25.30;51.00
21425;DHT22;10873;51.132;16.848;2023-11-19T05:18:10;25.30;51.00
21425;DHT22;10873;51.132;16.848;2023-11-19T05:20:36;25.30;51.00
21425;DHT22;10873;51.132;16.848;2023-11-19T05:23:02;25.30;51.00
21425;DHT22;10873;51.132;16.848;2023-11-19T05:25:28;25.30;50.90
21425;DHT22;10873;51.132;16.848;2023-11-19T05:27:54;25.30;51.00
21425;DHT22;10873;51.132;16.848;2023-11-19T05:30:20;25.30;51.00
21425;DHT22;10873;51.132;16.848;2023-11-19T05:32:46;25.20;50.90
21425;DHT22;10873;51.132;16.848;2023-11-19T05:35:14;25.20;50.90
21425;DHT22;10873;51.132;16.848;2023-11-19T05:37:40;25.20;50.90
21425;DHT22;10873;51.132;16.848;2023-11-19T05:40:08;25.20;51.00
21425;DHT22;10873;51.132;16.848;2023-11-19T05:42:40;25.20;51.00
21425;DHT22;10873;51.132;16.848;2023-11-19T05:45:08;25.20;51.10
21425;DHT22;10873;51.132;16.848;2023-11-19T05:47:34;25.20;51.10
21425;DHT22;10873;51.132;16.848;2023-11-19T05:50:00;25.20;51.20
21425;DHT22;10873;51.132;16.848;2023-11-19T05:52:28;25.20;51.00
21425;DHT22;10873;51.132;16.848;2023-11-19T05:54:59;25.30;51.00
21425;DHT22;10873;51.132;16.848;2023-11-19T05:57:28;25.30;51.00
21425;DHT22;10873;51.132;16.848;2023-11-19T05:59:55;25.20;50.90
21425;DHT22;10873;51.132;16.848;2023-11-19T06:02:21;25.20;50.90
21425;DHT22;10873;51.132;16.848;2023-11-19T06:04:47;25.20;51.60
21425;DHT22;10873;51.132;16.848;2023-11-19T06:07:13;25.20;50.90
21425;DHT22;10873;51.132;16.848;2023-11-19T06:09:42;25.20;50.90
21425;DHT22;10873;51.132;16.848;2023-11-19T06:12:08;25.20;50.90
21425;DHT22;10873;51.132;16.848;2023-11-19T06:14:34;25.20;50.90
21425;DHT22;10873;51.132;16.848;2023-11-19T06:17:00;25.20;50.90
21425;DHT22;10873;51.132;16.848;2023-11-19T06:19:27;25.20;50.80
21425;DHT22;10873;51.132;16.848;2023-11-19T06:21:54;25.20;50.90
21425;DHT22;10873;51.132;16.848;2023-11-19T06:24:20;25.20;50.90
21425;DHT22;10873;51.132;16.848;2023-11-19T06:26:47;25.20;50.90
21425;DHT22;10873;51.132;16.848;2023-11-19T06:29:14;25.20;50.90
21425;DHT22;10873;51.132;16.848;2023-11-19T06:31:44;25.20;50.90
21425;DHT22;10873;51.132;16.848;2023-11-19T06:34:10;25.20;50.90
21425;DHT22;10873;51.132;16.848;2023-11-19T06:36:36;25.20;50.80
21425;DHT22;10873;51.132;16.848;2023-11-19T06:39:02;25.20;50.80
21425;DHT22;10873;51.132;16.848;2023-11-19T06:41:29;25.20;50.70
21425;DHT22;10873;51.132;16.848;2023-11-19T06:43:57;25.20;50.70
21425;DHT22;10873;51.132;16.848;2023-11-19T06:46:23;25.20;50.70
21425;DHT22;10873;51.132;16.848;2023-11-19T06:48:49;25.20;50.70
21425;DHT22;10873;51.132;16.848;2023-11-19T06:51:15;25.20;50.60
21425;DHT22;10873;51.132;16.848;2023-11-19T06:53:42;25.20;50.50
21425;DHT22;10873;51.132;16.848;2023-11-19T06:56:18;25.20;50.50
21425;DHT22;10873;51.132;16.848;2023-11-19T06:58:45;25.20;50.60
21425;DHT22;10873;51.132;16.848;2023-11-19T07:01:12;25.20;51.10
21425;DHT22;10873;51.132;16.848;2023-11-19T07:03:39;25.20;55.30
21425;DHT22;10873;51.132;16.848;2023-11-19T07:06:05;25.10;55.00
21425;DHT22;10873;51.132;16.848;2023-11-19T07:08:32;25.10;54.00
21425;DHT22;10873;51.132;16.848;2023-11-19T07:11:02;25.10;53.60
21425;DHT22;10873;51.132;16.848;2023-11-19T07:13:34;25.10;54.30
21425;DHT22;10873;51.132;16.848;2023-11-19T07:16:01;25.10;55.10
21425;DHT22;10873;51.132;16.848;2023-11-19T07:18:45;25.20;55.10
21425;DHT22;10873;51.132;16.848;2023-11-19T07:21:14;25.20;55.30
21425;DHT22;10873;51.132;16.848;2023-11-19T07:23:45;25.30;56.10
21425;DHT22;10873;51.132;16.848;2023-11-19T07:26:12;25.30;57.20
21425;DHT22;10873;51.132;16.848;2023-11-19T07:28:39;25.40;57.90
21425;DHT22;10873;51.132;16.848;2023-11-19T07:31:07;25.50;62.90
21425;DHT22;10873;51.132;16.848;2023-11-19T07:33:36;25.60;63.90
21425;DHT22;10873;51.132;16.848;2023-11-19T07:36:06;25.80;65.00
21425;DHT22;10873;51.132;16.848;2023-11-19T07:38:33;26.10;65.50
21425;DHT22;10873;51.132;16.848;2023-11-19T07:41:00;26.50;66.10
21425;DHT22;10873;51.132;16.848;2023-11-19T07:43:28;26.90;66.40
21425;DHT22;10873;51.132;16.848;2023-11-19T07:45:54;27.30;66.10
21425;DHT22;10873;51.132;16.848;2023-11-19T07:48:23;27.80;66.00
21425;DHT22;10873;51.132;16.848;2023-11-19T07:50:52;28.20;65.40
21425;DHT22;10873;51.132;16.848;2023-11-19T07:53:19;28.60;65.40
21425;DHT22;10873;51.132;16.848;2023-11-19T07:55:45;28.90;65.40
21425;DHT22;10873;51.132;16.848;2023-11-19T07:58:12;29.10;65.30
21425;DHT22;10873;51.132;16.848;2023-11-19T08:00:40;29.40;65.50
21425;DHT22;10873;51.132;16.848;2023-11-19T08:03:06;29.70;65.50
21425;DHT22;10873;51.132;16.848;2023-11-19T08:05:40;29.90;65.00
21425;DHT22;10873;51.132;16.848;2023-11-19T08:08:08;29.90;56.70
21425;DHT22;10873;51.132;16.848;2023-11-19T08:10:34;29.70;56.60
21425;DHT22;10873;51.132;16.848;2023-11-19T08:13:00;29.40;59.70
21425;DHT22;10873;51.132;16.848;2023-11-19T08:15:27;29.50;61.30
21425;DHT22;10873;51.132;16.848;2023-11-19T08:17:53;29.70;61.70
21425;DHT22;10873;51.132;16.848;2023-11-19T08:20:19;29.90;61.70
21425;DHT22;10873;51.132;16.848;2023-11-19T08:22:45;30.20;61.10
21425;DHT22;10873;51.132;16.848;2023-11-19T08:25:12;30.40;60.90
21425;DHT22;10873;51.132;16.848;2023-11-19T08:27:39;30.60;60.30
21425;DHT22;10873;51.132;16.848;2023-11-19T08:30:05;30.80;59.70
21425;DHT22;10873;51.132;16.848;2023-11-19T08:32:32;31.00;59.20
21425;DHT22;10873;51.132;16.848;2023-11-19T08:34:58;31.10;58.60
21425;DHT22;10873;51.132;16.848;2023-11-19T08:37:25;31.20;58.10
21425;DHT22;10873;51.132;16.848;2023-11-19T08:39:51;31.30;57.60
21425;DHT22;10873;51.132;16.848;2023-11-19T08:42:19;31.40;57.40
21425;DHT22;10873;51.132;16.848;2023-11-19T08:44:48;31.60;57.20
21425;DHT22;10873;51.132;16.848;2023-11-19T08:47:16;31.70;56.80
21425;DHT22;10873;51.132;16.848;2023-11-19T08:49:43;31.70;56.50
21425;DHT22;10873;51.132;16.848;2023-11-19T08:52:09;31.90;56.20
21425;DHT22;10873;51.132;16.848;2023-11-19T08:54:36;31.90;55.70
21425;DHT22;10873;51.132;16.848;2023-11-19T08:57:02;31.90;56.20
21425;DHT22;10873;51.132;16.848;2023-11-19T08:59:30;31.70;56.10
21425;DHT22;10873;51.132;16.848;2023-11-19T09:01:56;31.40;56.90
21425;DHT22;10873;51.132;16.848;2023-11-19T09:04:22;31.10;57.20
21425;DHT22;10873;51.132;16.848;2023-11-19T09:06:49;30.80;57.40
21425;DHT22;10873;51.132;16.848;2023-11-19T09:09:15;30.60;57.20
21425;DHT22;10873;51.132;16.848;2023-11-19T09:11:41;30.40;56.80
21425;DHT22;10873;51.132;16.848;2023-11-19T09:14:08;30.10;55.90
21425;DHT22;10873;51.132;16.848;2023-11-19T09:16:35;30.00;55.50
21425;DHT22;10873;51.132;16.848;2023-11-19T09:19:01;29.80;52.60
21425;DHT22;10873;51.132;16.848;2023-11-19T09:21:28;29.60;53.70
21425;DHT22;10873;51.132;16.848;2023-11-19T09:23:55;29.50;56.50
21425;DHT22;10873;51.132;16.848;2023-11-19T09:26:21;29.70;58.00
21425;DHT22;10873;51.132;16.848;2023-11-19T09:28:47;29.80;58.60
21425;DHT22;10873;51.132;16.848;2023-11-19T09:31:14;30.20;59.00
21425;DHT22;10873;51.132;16.848;2023-11-19T09:33:41;30.50;60.20
21425;DHT22;10873;51.132;16.848;2023-11-19T09:36:11;30.80;59.50
21425;DHT22;10873;51.132;16.848;2023-11-19T09:38:39;31.00;59.70
21425;DHT22;10873;51.132;16.848;2023-11-19T09:41:05;30.90;57.00
21425;DHT22;10873;51.132;16.848;2023-11-19T09:43:43;30.70;57.60
21425;DHT22;10873;51.132;16.848;2023-11-19T09:46:30;30.70;62.20
21425;DHT22;10873;51.132;16.848;2023-11-19T09:49:05;30.80;61.80
21425;DHT22;10873;51.132;16.848;2023-11-19T09:51:37;31.00;62.00
21425;DHT22;10873;51.132;16.848;2023-11-19T09:54:04;30.90;58.70
21425;DHT22;10873;51.132;16.848;2023-11-19T09:56:33;30.70;59.60
21425;DHT22;10873;51.132;16.848;2023-11-19T09:59:02;30.80;62.60
21425;DHT22;10873;51.132;16.848;2023-11-19T10:01:35;31.00;61.90
21425;DHT22;10873;51.132;16.848;2023-11-19T10:04:07;30.90;60.10
21425;DHT22;10873;51.132;16.848;2023-11-19T10:06:36;30.70;60.90
21425;DHT22;10873;51.132;16.848;2023-11-19T10:09:02;30.90;62.20
21425;DHT22;10873;51.132;16.848;2023-11-19T10:11:31;31.20;60.90
21425;DHT22;10873;51.132;16.848;2023-11-19T10:13:57;31.60;59.70
21425;DHT22;10873;51.132;16.848;2023-11-19T10:16:28;31.80;58.60
21425;DHT22;10873;51.132;16.848;2023-11-19T10:18:56;32.10;57.70
21425;DHT22;10873;51.132;16.848;2023-11-19T10:21:23;32.30;57.00
21425;DHT22;10873;51.132;16.848;2023-11-19T10:23:51;32.50;56.20
21425;DHT22;10873;51.132;16.848;2023-11-19T10:26:18;32.50;55.80
21425;DHT22;10873;51.132;16.848;2023-11-19T10:28:46;32.30;56.50
21425;DHT22;10873;51.132;16.848;2023-11-19T10:31:12;32.20;57.80
21425;DHT22;10873;51.132;16.848;2023-11-19T10:33:38;32.30;56.70
21425;DHT22;10873;51.132;16.848;2023-11-19T10:36:05;32.50;55.70
21425;DHT22;10873;51.132;16.848;2023-11-19T10:38:36;32.80;55.00
21425;DHT22;10873;51.132;16.848;2023-11-19T10:41:02;32.80;55.70
21425;DHT22;10873;51.132;16.848;2023-11-19T10:43:30;32.60;56.30
21425;DHT22;10873;51.132;16.848;2023-11-19T10:46:09;32.50;56.20
21425;DHT22;10873;51.132;16.848;2023-11-19T10:48:36;32.60;55.60
21425;DHT22;10873;51.132;16.848;2023-11-19T10:51:05;32.60;55.10
21425;DHT22;10873;51.132;16.848;2023-11-19T10:53:36;32.40;54.80
21425;DHT22;10873;51.132;16.848;2023-11-19T10:56:05;32.20;54.90
21425;DHT22;10873;51.132;16.848;2023-11-19T10:58:35;31.90;54.10
21425;DHT22;10873;51.132;16.848;2023-11-19T11:01:08;31.70;55.10
21425;DHT22;10873;51.132;16.848;2023-11-19T11:03:38;31.40;53.70
21425;DHT22;10873;51.132;16.848;2023-11-19T11:06:06;31.20;53.20
21425;DHT22;10873;51.132;16.848;2023-11-19T11:08:32;31.00;52.90
21425;DHT22;10873;51.132;16.848;2023-11-19T11:11:04;30.90;52.40
21425;DHT22;10873;51.132;16.848;2023-11-19T11:13:31;30.70;52.00
21425;DHT22;10873;51.132;16.848;2023-11-19T11:15:58;30.60;51.70
21425;DHT22;10873;51.132;16.848;2023-11-19T11:18:25;30.50;51.50
21425;DHT22;10873;51.132;16.848;2023-11-19T11:20:56;30.40;51.20
21425;DHT22;10873;51.132;16.848;2023-11-19T11:23:52;30.30;51.20
21425;DHT22;10873;51.132;16.848;2023-11-19T11:26:46;30.20;50.80
21425;DHT22;10873;51.132;16.848;2023-11-19T11:29:24;30.10;50.70
21425;DHT22;10873;51.132;16.848;2023-11-19T11:32:00;30.00;50.60
21425;DHT22;10873;51.132;16.848;2023-11-19T11:37:32;29.80;50.60
21425;DHT22;10873;51.132;16.848;2023-11-19T11:39:58;29.70;50.70
21425;DHT22;10873;51.132;16.848;2023-11-19T11:42:37;29.70;50.50
21425;DHT22;10873;51.132;16.848;2023-11-19T11:45:05;29.60;50.50
21425;DHT22;10873;51.132;16.848;2023-11-19T11:50:47;29.50;50.30
21425;DHT22;10873;51.132;16.848;2023-11-19T11:53:15;29.40;50.30
21425;DHT22;10873;51.132;16.848;2023-11-19T11:55:56;29.40;50.30
21425;DHT22;10873;51.132;16.848;2023-11-19T11:58:31;29.40;50.30
21425;DHT22;10873;51.132;16.848;2023-11-19T12:00:58;29.30;50.30
21425;DHT22;10873;51.132;16.848;2023-11-19T12:03:28;29.30;50.30
21425;DHT22;10873;51.132;16.848;2023-11-19T12:05:54;29.20;50.20
21425;DHT22;10873;51.132;16.848;2023-11-19T12:08:24;29.20;50.30
21425;DHT22;10873;51.132;16.848;2023-11-19T12:10:52;29.20;50.30
21425;DHT22;10873;51.132;16.848;2023-11-19T12:13:20;29.10;50.30
21425;DHT22;10873;51.132;16.848;2023-11-19T12:16:08;29.10;50.40
21425;DHT22;10873;51.132;16.848;2023-11-19T12:18:35;29.10;50.40
21425;DHT22;10873;51.132;16.848;2023-11-19T12:21:01;29.00;50.40
21425;DHT22;10873;51.132;16.848;2023-11-19T12:23:29;29.00;50.40
21425;DHT22;10873;51.132;16.848;2023-11-19T12:25:55;28.90;50.40
21425;DHT22;10873;51.132;16.848;2023-11-19T12:28:21;28.90;50.50
21425;DHT22;10873;51.132;16.848;2023-11-19T12:30:50;28.90;52.50
21425;DHT22;10873;51.132;16.848;2023-11-19T12:33:18;28.80;53.50
21425;DHT22;10873;51.132;16.848;2023-11-19T12:35:47;28.70;54.00
21425;DHT22;10873;51.132;16.848;2023-11-19T12:38:18;28.70;54.60
21425;DHT22;10873;51.132;16.848;2023-11-19T12:40:45;28.70;54.70
21425;DHT22;10873;51.132;16.848;2023-11-19T12:43:21;28.70;59.00
21425;DHT22;10873;51.132;16.848;2023-11-19T12:45:48;28.80;60.00
21425;DHT22;10873;51.132;16.848;2023-11-19T12:48:14;29.00;60.90
21425;DHT22;10873;51.132;16.848;2023-11-19T12:50:54;29.20;61.50
21425;DHT22;10873;51.132;16.848;2023-11-19T12:53:21;29.60;62.00
21425;DHT22;10873;51.132;16.848;2023-11-19T12:55:47;30.00;62.10
21425;DHT22;10873;51.132;16.848;2023-11-19T12:58:31;30.30;62.10
21425;DHT22;10873;51.132;16.848;2023-11-19T13:01:01;30.70;62.00
21425;DHT22;10873;51.132;16.848;2023-11-19T13:03:31;31.00;62.80
21425;DHT22;10873;51.132;16.848;2023-11-19T13:06:03;31.00;59.00
21425;DHT22;10873;51.132;16.848;2023-11-19T13:08:36;30.90;58.60
21425;DHT22;10873;51.132;16.848;2023-11-19T13:11:04;30.90;63.00
21425;DHT22;10873;51.132;16.848;2023-11-19T13:13:30;31.00;62.90
21425;DHT22;10873;51.132;16.848;2023-11-19T13:16:02;30.90;59.80
21425;DHT22;10873;51.132;16.848;2023-11-19T13:18:28;30.80;59.70
21425;DHT22;10873;51.132;16.848;2023-11-19T13:20:54;30.90;63.10
21425;DHT22;10873;51.132;16.848;2023-11-19T13:23:24;31.10;62.00
21425;DHT22;10873;51.132;16.848;2023-11-19T13:25:50;31.40;61.00
21425;DHT22;10873;51.132;16.848;2023-11-19T13:28:17;31.70;59.90
21425;DHT22;10873;51.132;16.848;2023-11-19T13:30:42;32.00;59.00
21425;DHT22;10873;51.132;16.848;2023-11-19T13:33:08;32.20;58.30
21425;DHT22;10873;51.132;16.848;2023-11-19T13:35:37;32.40;57.60
21425;DHT22;10873;51.132;16.848;2023-11-19T13:38:06;32.50;56.90
21425;DHT22;10873;51.132;16.848;2023-11-19T13:40:35;32.70;56.50
21425;DHT22;10873;51.132;16.848;2023-11-19T13:43:01;32.80;56.90
21425;DHT22;10873;51.132;16.848;2023-11-19T13:45:27;32.60;57.80
21425;DHT22;10873;51.132;16.848;2023-11-19T13:47:53;32.40;58.20
21425;DHT22;10873;51.132;16.848;2023-11-19T13:50:19;32.60;57.40
21425;DHT22;10873;51.132;16.848;2023-11-19T13:52:46;32.80;57.40
21425;DHT22;10873;51.132;16.848;2023-11-19T13:55:13;32.80;57.20
21425;DHT22;10873;51.132;16.848;2023-11-19T13:57:42;32.60;57.20
21425;DHT22;10873;51.132;16.848;2023-11-19T14:00:12;32.60;57.60
21425;DHT22;10873;51.132;16.848;2023-11-19T14:02:39;32.70;56.80
21425;DHT22;10873;51.132;16.848;2023-11-19T14:05:06;32.90;56.30
21425;DHT22;10873;51.132;16.848;2023-11-19T14:07:32;33.10;56.70
21425;DHT22;10873;51.132;16.848;2023-11-19T14:09:58;32.90;55.40
21425;DHT22;10873;51.132;16.848;2023-11-19T14:12:24;32.70;55.10
21425;DHT22;10873;51.132;16.848;2023-11-19T14:14:52;32.40;55.60
21425;DHT22;10873;51.132;16.848;2023-11-19T14:17:18;32.20;55.70
21425;DHT22;10873;51.132;16.848;2023-11-19T14:19:44;31.90;55.70
21425;DHT22;10873;51.132;16.848;2023-11-19T14:22:10;31.70;55.60
21425;DHT22;10873;51.132;16.848;2023-11-19T14:24:37;31.60;55.20
21425;DHT22;10873;51.132;16.848;2023-11-19T14:27:04;31.40;54.80
21425;DHT22;10873;51.132;16.848;2023-11-19T14:29:30;31.30;54.70
21425;DHT22;10873;51.132;16.848;2023-11-19T14:31:58;31.10;53.70
21425;DHT22;10873;51.132;16.848;2023-11-19T14:34:24;31.00;54.10
21425;DHT22;10873;51.132;16.848;2023-11-19T14:36:52;30.90;54.20
21425;DHT22;10873;51.132;16.848;2023-11-19T14:39:19;30.80;53.70
21425;DHT22;10873;51.132;16.848;2023-11-19T14:41:45;30.70;53.40
21425;DHT22;10873;51.132;16.848;2023-11-19T14:44:11;30.60;52.90
21425;DHT22;10873;51.132;16.848;2023-11-19T14:46:38;30.50;52.60
21425;DHT22;10873;51.132;16.848;2023-11-19T14:49:06;30.40;52.30
21425;DHT22;10873;51.132;16.848;2023-11-19T14:51:35;30.30;52.00
21425;DHT22;10873;51.132;16.848;2023-11-19T14:54:01;30.10;51.90
21425;DHT22;10873;51.132;16.848;2023-11-19T14:56:29;30.10;51.70
21425;DHT22;10873;51.132;16.848;2023-11-19T14:58:55;30.00;51.50
21425;DHT22;10873;51.132;16.848;2023-11-19T15:01:21;29.90;51.40
21425;DHT22;10873;51.132;16.848;2023-11-19T15:03:47;29.80;51.30
21425;DHT22;10873;51.132;16.848;2023-11-19T15:06:14;29.80;51.30
21425;DHT22;10873;51.132;16.848;2023-11-19T15:08:40;29.70;51.30
21425;DHT22;10873;51.132;16.848;2023-11-19T15:11:07;29.70;51.40
21425;DHT22;10873;51.132;16.848;2023-11-19T15:13:34;29.60;51.40
21425;DHT22;10873;51.132;16.848;2023-11-19T15:16:03;29.50;51.40
21425;DHT22;10873;51.132;16.848;2023-11-19T15:18:31;29.40;51.40
21425;DHT22;10873;51.132;16.848;2023-11-19T15:20:57;29.40;51.60
21425;DHT22;10873;51.132;16.848;2023-11-19T15:23:24;29.30;51.60
21425;DHT22;10873;51.132;16.848;2023-11-19T15:25:50;29.30;51.70